sensor_id;sensor_type;location;lat;lon;timestamp;P1;durP1;ratioP1;P2;durP2;ratioP2
44228;SDS011;29904;51.058;5.378;2022-08-21T00:01:25;5.68;;;3.58;;
44228;SDS011;29904;51.058;5.378;2022-08-21T00:03:53;6.38;;;3.75;;
44228;SDS011;29904;51.058;5.378;2022-08-21T00:06:19;4.20;;;3.30;;
44228;SDS011;29904;51.058;5.378;2022-08-21T00:08:45;6.80;;;3.55;;
44228;SDS011;29904;51.058;5.378;2022-08-21T00:11:11;5.20;;;3.25;;
44228;SDS011;29904;51.058;5.378;2022-08-21T00:13:37;5.22;;;3.70;;
44228;SDS011;29904;51.058;5.378;2022-08-21T00:16:03;5.60;;;3.58;;
44228;SDS011;29904;51.058;5.378;2022-08-21T00:18:31;5.00;;;3.45;;
44228;SDS011;29904;51.058;5.378;2022-08-21T00:20:57;4.30;;;3.10;;
44228;SDS011;29904;51.058;5.378;2022-08-21T00:23:23;4.90;;;3.28;;
44228;SDS011;29904;51.058;5.378;2022-08-21T00:25:51;5.47;;;3.20;;
44228;SDS011;29904;51.058;5.378;2022-08-21T00:28:18;5.57;;;3.20;;
44228;SDS011;29904;51.058;5.378;2022-08-21T00:30:45;5.30;;;3.33;;
44228;SDS011;29904;51.058;5.378;2022-08-21T00:33:11;4.68;;;3.17;;
44228;SDS011;29904;51.058;5.378;2022-08-21T00:35:40;4.28;;;2.80;;
44228;SDS011;29904;51.058;5.378;2022-08-21T00:38:07;6.03;;;3.30;;
44228;SDS011;29904;51.058;5.378;2022-08-21T00:40:41;4.40;;;3.10;;
44228;SDS011;29904;51.058;5.378;2022-08-21T00:43:09;3.63;;;2.67;;
44228;SDS011;29904;51.058;5.378;2022-08-21T00:45:37;5.10;;;3.40;;
44228;SDS011;29904;51.058;5.378;2022-08-21T00:48:03;4.63;;;3.10;;
44228;SDS011;29904;51.058;5.378;2022-08-21T00:50:30;5.22;;;2.90;;
44228;SDS011;29904;51.058;5.378;2022-08-21T00:52:59;6.70;;;3.35;;
44228;SDS011;29904;51.058;5.378;2022-08-21T00:55:26;5.57;;;3.38;;
44228;SDS011;29904;51.058;5.378;2022-08-21T00:57:54;5.30;;;3.15;;
44228;SDS011;29904;51.058;5.378;2022-08-21T01:00:24;4.20;;;2.75;;
44228;SDS011;29904;51.058;5.378;2022-08-21T01:02:56;7.30;;;3.70;;
44228;SDS011;29904;51.058;5.378;2022-08-21T01:05:24;3.75;;;2.80;;
44228;SDS011;29904;51.058;5.378;2022-08-21T01:07:50;5.20;;;3.10;;
44228;SDS011;29904;51.058;5.378;2022-08-21T01:10:16;4.22;;;3.15;;
44228;SDS011;29904;51.058;5.378;2022-08-21T01:12:43;4.75;;;3.10;;
44228;SDS011;29904;51.058;5.378;2022-08-21T01:15:09;4.50;;;2.80;;
44228;SDS011;29904;51.058;5.378;2022-08-21T01:17:37;4.13;;;2.67;;
44228;SDS011;29904;51.058;5.378;2022-08-21T01:20:08;4.33;;;3.00;;
44228;SDS011;29904;51.058;5.378;2022-08-21T01:22:35;5.25;;;3.05;;
44228;SDS011;29904;51.058;5.378;2022-08-21T01:25:03;5.97;;;3.05;;
44228;SDS011;29904;51.058;5.378;2022-08-21T01:27:30;5.93;;;3.33;;
44228;SDS011;29904;51.058;5.378;2022-08-21T01:30:12;5.72;;;2.85;;
44228;SDS011;29904;51.058;5.378;2022-08-21T01:32:41;6.22;;;2.65;;
44228;SDS011;29904;51.058;5.378;2022-08-21T01:35:07;5.90;;;3.03;;
44228;SDS011;29904;51.058;5.378;2022-08-21T01:37:34;5.88;;;2.50;;
44228;SDS011;29904;51.058;5.378;2022-08-21T01:40:03;5.95;;;2.75;;
44228;SDS011;29904;51.058;5.378;2022-08-21T01:42:30;4.68;;;2.70;;
44228;SDS011;29904;51.058;5.378;2022-08-21T01:44:55;4.37;;;2.60;;
44228;SDS011;29904;51.058;5.378;2022-08-21T01:47:23;6.95;;;2.75;;
44228;SDS011;29904;51.058;5.378;2022-08-21T01:49:49;5.88;;;2.58;;
44228;SDS011;29904;51.058;5.378;2022-08-21T01:52:16;4.05;;;2.50;;
44228;SDS011;29904;51.058;5.378;2022-08-21T01:54:42;3.93;;;2.60;;
44228;SDS011;29904;51.058;5.378;2022-08-21T01:57:10;3.67;;;2.42;;
44228;SDS011;29904;51.058;5.378;2022-08-21T01:59:37;4.63;;;2.53;;
44228;SDS011;29904;51.058;5.378;2022-08-21T02:02:04;4.13;;;2.63;;
44228;SDS011;29904;51.058;5.378;2022-08-21T02:04:30;5.80;;;2.90;;
44228;SDS011;29904;51.058;5.378;2022-08-21T02:06:59;6.70;;;2.90;;
44228;SDS011;29904;51.058;5.378;2022-08-21T02:09:25;6.30;;;2.65;;
44228;SDS011;29904;51.058;5.378;2022-08-21T02:11:52;5.63;;;2.67;;
44228;SDS011;29904;51.058;5.378;2022-08-21T02:14:18;5.28;;;2.88;;
44228;SDS011;29904;51.058;5.378;2022-08-21T02:16:44;5.60;;;3.05;;
44228;SDS011;29904;51.058;5.378;2022-08-21T02:19:11;6.97;;;3.40;;
44228;SDS011;29904;51.058;5.378;2022-08-21T02:21:39;6.22;;;3.10;;
44228;SDS011;29904;51.058;5.378;2022-08-21T02:24:07;6.32;;;3.15;;
44228;SDS011;29904;51.058;5.378;2022-08-21T02:26:33;5.78;;;3.10;;
44228;SDS011;29904;51.058;5.378;2022-08-21T02:28:59;5.85;;;3.00;;
44228;SDS011;29904;51.058;5.378;2022-08-21T02:31:28;5.32;;;3.17;;
44228;SDS011;29904;51.058;5.378;2022-08-21T02:33:54;5.15;;;2.90;;
44228;SDS011;29904;51.058;5.378;2022-08-21T02:36:20;4.75;;;3.10;;
44228;SDS011;29904;51.058;5.378;2022-08-21T02:38:46;5.35;;;3.10;;
44228;SDS011;29904;51.058;5.378;2022-08-21T02:41:16;6.47;;;3.00;;
44228;SDS011;29904;51.058;5.378;2022-08-21T02:43:44;5.38;;;3.00;;
44228;SDS011;29904;51.058;5.378;2022-08-21T02:46:11;6.20;;;2.73;;
44228;SDS011;29904;51.058;5.378;2022-08-21T02:48:38;6.57;;;2.80;;
44228;SDS011;29904;51.058;5.378;2022-08-21T02:53:39;6.70;;;2.97;;
44228;SDS011;29904;51.058;5.378;2022-08-21T02:56:07;5.55;;;2.60;;
44228;SDS011;29904;51.058;5.378;2022-08-21T02:58:37;5.25;;;2.63;;
44228;SDS011;29904;51.058;5.378;2022-08-21T03:01:10;5.33;;;2.97;;
44228;SDS011;29904;51.058;5.378;2022-08-21T03:03:36;6.65;;;3.00;;
44228;SDS011;29904;51.058;5.378;2022-08-21T03:06:05;5.68;;;3.42;;
44228;SDS011;29904;51.058;5.378;2022-08-21T03:08:31;6.30;;;2.80;;
44228;SDS011;29904;51.058;5.378;2022-08-21T03:10:57;6.37;;;3.50;;
44228;SDS011;29904;51.058;5.378;2022-08-21T03:13:24;5.10;;;2.70;;
44228;SDS011;29904;51.058;5.378;2022-08-21T03:15:50;6.60;;;3.35;;
44228;SDS011;29904;51.058;5.378;2022-08-21T03:18:16;5.07;;;2.63;;
44228;SDS011;29904;51.058;5.378;2022-08-21T03:20:42;7.22;;;3.08;;
44228;SDS011;29904;51.058;5.378;2022-08-21T03:23:10;4.65;;;2.90;;
44228;SDS011;29904;51.058;5.378;2022-08-21T03:25:37;6.28;;;2.70;;
44228;SDS011;29904;51.058;5.378;2022-08-21T03:28:04;7.25;;;2.88;;
44228;SDS011;29904;51.058;5.378;2022-08-21T03:30:36;4.90;;;2.67;;
44228;SDS011;29904;51.058;5.378;2022-08-21T03:33:02;6.30;;;2.70;;
44228;SDS011;29904;51.058;5.378;2022-08-21T03:35:28;5.17;;;2.63;;
44228;SDS011;29904;51.058;5.378;2022-08-21T03:37:55;4.60;;;2.50;;
44228;SDS011;29904;51.058;5.378;2022-08-21T03:40:21;5.18;;;2.88;;
44228;SDS011;29904;51.058;5.378;2022-08-21T03:42:49;5.57;;;2.90;;
44228;SDS011;29904;51.058;5.378;2022-08-21T03:45:15;5.85;;;2.80;;
44228;SDS011;29904;51.058;5.378;2022-08-21T03:47:53;4.88;;;2.78;;
44228;SDS011;29904;51.058;5.378;2022-08-21T03:50:25;4.38;;;2.70;;
44228;SDS011;29904;51.058;5.378;2022-08-21T03:52:53;5.55;;;2.83;;
44228;SDS011;29904;51.058;5.378;2022-08-21T03:55:19;4.88;;;2.58;;
44228;SDS011;29904;51.058;5.378;2022-08-21T03:57:45;5.70;;;2.77;;
44228;SDS011;29904;51.058;5.378;2022-08-21T04:00:11;5.22;;;2.55;;
44228;SDS011;29904;51.058;5.378;2022-08-21T04:02:39;4.23;;;2.50;;
44228;SDS011;29904;51.058;5.378;2022-08-21T04:05:05;6.07;;;2.80;;
44228;SDS011;29904;51.058;5.378;2022-08-21T04:07:33;6.05;;;3.40;;
44228;SDS011;29904;51.058;5.378;2022-08-21T04:09:59;6.10;;;2.88;;
44228;SDS011;29904;51.058;5.378;2022-08-21T04:12:24;5.75;;;2.75;;
44228;SDS011;29904;51.058;5.378;2022-08-21T04:14:52;7.73;;;3.00;;
44228;SDS011;29904;51.058;5.378;2022-08-21T04:17:18;6.23;;;2.97;;
44228;SDS011;29904;51.058;5.378;2022-08-21T04:19:43;5.60;;;3.05;;
44228;SDS011;29904;51.058;5.378;2022-08-21T04:22:09;4.63;;;2.83;;
44228;SDS011;29904;51.058;5.378;2022-08-21T04:24:35;5.57;;;3.00;;
44228;SDS011;29904;51.058;5.378;2022-08-21T04:27:01;5.47;;;2.97;;
44228;SDS011;29904;51.058;5.378;2022-08-21T04:29:27;7.43;;;2.72;;
44228;SDS011;29904;51.058;5.378;2022-08-21T04:31:53;6.75;;;2.60;;
44228;SDS011;29904;51.058;5.378;2022-08-21T04:34:21;5.20;;;2.65;;
44228;SDS011;29904;51.058;5.378;2022-08-21T04:36:47;4.88;;;2.63;;
44228;SDS011;29904;51.058;5.378;2022-08-21T04:39:12;4.53;;;2.40;;
44228;SDS011;29904;51.058;5.378;2022-08-21T04:41:38;5.30;;;2.80;;
44228;SDS011;29904;51.058;5.378;2022-08-21T04:44:04;4.10;;;2.35;;
44228;SDS011;29904;51.058;5.378;2022-08-21T04:46:30;4.82;;;2.20;;
44228;SDS011;29904;51.058;5.378;2022-08-21T04:48:55;6.40;;;2.60;;
44228;SDS011;29904;51.058;5.378;2022-08-21T04:51:25;4.47;;;2.40;;
44228;SDS011;29904;51.058;5.378;2022-08-21T04:53:56;5.93;;;2.30;;
44228;SDS011;29904;51.058;5.378;2022-08-21T04:56:28;5.90;;;2.42;;
44228;SDS011;29904;51.058;5.378;2022-08-21T04:59:01;6.65;;;2.50;;
44228;SDS011;29904;51.058;5.378;2022-08-21T05:01:31;6.18;;;2.33;;
44228;SDS011;29904;51.058;5.378;2022-08-21T05:04:00;4.43;;;2.45;;
44228;SDS011;29904;51.058;5.378;2022-08-21T05:06:30;3.75;;;2.13;;
44228;SDS011;29904;51.058;5.378;2022-08-21T05:09:00;5.32;;;2.38;;
44228;SDS011;29904;51.058;5.378;2022-08-21T05:11:26;5.68;;;2.20;;
44228;SDS011;29904;51.058;5.378;2022-08-21T05:13:53;4.27;;;2.03;;
44228;SDS011;29904;51.058;5.378;2022-08-21T05:16:19;3.88;;;2.03;;
44228;SDS011;29904;51.058;5.378;2022-08-21T05:18:45;5.20;;;2.10;;
44228;SDS011;29904;51.058;5.378;2022-08-21T05:21:11;5.70;;;2.20;;
44228;SDS011;29904;51.058;5.378;2022-08-21T05:23:38;4.88;;;2.13;;
44228;SDS011;29904;51.058;5.378;2022-08-21T05:26:04;4.13;;;1.85;;
44228;SDS011;29904;51.058;5.378;2022-08-21T05:28:30;4.60;;;1.90;;
44228;SDS011;29904;51.058;5.378;2022-08-21T05:30:57;6.05;;;2.22;;
44228;SDS011;29904;51.058;5.378;2022-08-21T05:33:23;5.30;;;2.20;;
44228;SDS011;29904;51.058;5.378;2022-08-21T05:35:50;3.37;;;2.00;;
44228;SDS011;29904;51.058;5.378;2022-08-21T05:38:20;4.87;;;2.20;;
44228;SDS011;29904;51.058;5.378;2022-08-21T05:40:49;4.47;;;2.00;;
44228;SDS011;29904;51.058;5.378;2022-08-21T05:43:15;4.97;;;2.10;;
44228;SDS011;29904;51.058;5.378;2022-08-21T05:45:40;6.10;;;2.20;;
44228;SDS011;29904;51.058;5.378;2022-08-21T05:48:07;4.40;;;1.90;;
44228;SDS011;29904;51.058;5.378;2022-08-21T05:50:34;4.05;;;1.90;;
44228;SDS011;29904;51.058;5.378;2022-08-21T05:53:00;4.97;;;1.85;;
44228;SDS011;29904;51.058;5.378;2022-08-21T05:55:26;3.85;;;2.00;;
44228;SDS011;29904;51.058;5.378;2022-08-21T05:57:52;6.47;;;2.40;;
44228;SDS011;29904;51.058;5.378;2022-08-21T06:00:17;5.53;;;2.47;;
44228;SDS011;29904;51.058;5.378;2022-08-21T06:02:43;5.93;;;2.10;;
44228;SDS011;29904;51.058;5.378;2022-08-21T06:05:09;4.67;;;2.10;;
44228;SDS011;29904;51.058;5.378;2022-08-21T06:07:35;5.97;;;2.30;;
44228;SDS011;29904;51.058;5.378;2022-08-21T06:10:00;5.97;;;2.20;;
44228;SDS011;29904;51.058;5.378;2022-08-21T06:12:26;4.13;;;2.10;;
44228;SDS011;29904;51.058;5.378;2022-08-21T06:14:53;6.30;;;2.13;;
44228;SDS011;29904;51.058;5.378;2022-08-21T06:17:19;3.85;;;2.30;;
44228;SDS011;29904;51.058;5.378;2022-08-21T06:19:45;5.63;;;2.13;;
44228;SDS011;29904;51.058;5.378;2022-08-21T06:22:15;5.65;;;1.95;;
44228;SDS011;29904;51.058;5.378;2022-08-21T06:24:41;4.50;;;1.90;;
44228;SDS011;29904;51.058;5.378;2022-08-21T06:27:06;4.83;;;2.30;;
44228;SDS011;29904;51.058;5.378;2022-08-21T06:29:35;5.82;;;2.20;;
44228;SDS011;29904;51.058;5.378;2022-08-21T06:32:01;5.05;;;1.83;;
44228;SDS011;29904;51.058;5.378;2022-08-21T06:34:28;5.28;;;2.13;;
44228;SDS011;29904;51.058;5.378;2022-08-21T06:36:54;6.93;;;2.08;;
44228;SDS011;29904;51.058;5.378;2022-08-21T06:39:19;4.68;;;1.85;;
44228;SDS011;29904;51.058;5.378;2022-08-21T06:41:45;5.97;;;1.80;;
44228;SDS011;29904;51.058;5.378;2022-08-21T06:44:15;5.97;;;2.00;;
44228;SDS011;29904;51.058;5.378;2022-08-21T06:46:41;7.00;;;1.92;;
44228;SDS011;29904;51.058;5.378;2022-08-21T06:49:07;3.15;;;1.60;;
44228;SDS011;29904;51.058;5.378;2022-08-21T06:51:33;5.20;;;1.70;;
44228;SDS011;29904;51.058;5.378;2022-08-21T06:53:59;4.63;;;1.80;;
44228;SDS011;29904;51.058;5.378;2022-08-21T06:56:24;5.15;;;1.65;;
44228;SDS011;29904;51.058;5.378;2022-08-21T06:58:52;3.78;;;1.35;;
44228;SDS011;29904;51.058;5.378;2022-08-21T07:01:19;4.77;;;1.90;;
44228;SDS011;29904;51.058;5.378;2022-08-21T07:03:48;5.10;;;1.40;;
44228;SDS011;29904;51.058;5.378;2022-08-21T07:06:14;4.80;;;1.50;;
44228;SDS011;29904;51.058;5.378;2022-08-21T07:08:40;7.13;;;1.60;;
44228;SDS011;29904;51.058;5.378;2022-08-21T07:11:10;4.27;;;1.50;;
44228;SDS011;29904;51.058;5.378;2022-08-21T07:13:39;4.45;;;1.40;;
44228;SDS011;29904;51.058;5.378;2022-08-21T07:16:05;4.88;;;1.60;;
44228;SDS011;29904;51.058;5.378;2022-08-21T07:18:31;5.57;;;1.67;;
44228;SDS011;29904;51.058;5.378;2022-08-21T07:21:00;3.70;;;1.30;;
44228;SDS011;29904;51.058;5.378;2022-08-21T07:23:28;5.57;;;1.60;;
44228;SDS011;29904;51.058;5.378;2022-08-21T07:25:57;5.05;;;1.45;;
44228;SDS011;29904;51.058;5.378;2022-08-21T07:28:25;5.13;;;1.40;;
44228;SDS011;29904;51.058;5.378;2022-08-21T07:30:52;5.50;;;1.40;;
44228;SDS011;29904;51.058;5.378;2022-08-21T07:33:19;4.13;;;1.10;;
44228;SDS011;29904;51.058;5.378;2022-08-21T07:35:45;3.80;;;1.10;;
44228;SDS011;29904;51.058;5.378;2022-08-21T07:38:11;4.07;;;1.20;;
44228;SDS011;29904;51.058;5.378;2022-08-21T07:40:37;4.97;;;1.27;;
44228;SDS011;29904;51.058;5.378;2022-08-21T07:43:03;4.45;;;1.25;;
44228;SDS011;29904;51.058;5.378;2022-08-21T07:45:31;4.53;;;1.33;;
44228;SDS011;29904;51.058;5.378;2022-08-21T07:47:57;5.50;;;1.20;;
44228;SDS011;29904;51.058;5.378;2022-08-21T07:50:23;5.83;;;1.20;;
44228;SDS011;29904;51.058;5.378;2022-08-21T07:52:51;5.43;;;1.10;;
44228;SDS011;29904;51.058;5.378;2022-08-21T07:55:18;6.00;;;1.40;;
44228;SDS011;29904;51.058;5.378;2022-08-21T07:57:44;5.17;;;1.33;;
44228;SDS011;29904;51.058;5.378;2022-08-21T08:00:13;4.78;;;1.33;;
44228;SDS011;29904;51.058;5.378;2022-08-21T08:02:44;6.13;;;1.40;;
44228;SDS011;29904;51.058;5.378;2022-08-21T08:05:12;6.78;;;1.52;;
44228;SDS011;29904;51.058;5.378;2022-08-21T08:07:39;5.13;;;1.60;;
44228;SDS011;29904;51.058;5.378;2022-08-21T08:10:06;6.22;;;1.63;;
44228;SDS011;29904;51.058;5.378;2022-08-21T08:12:38;4.57;;;1.23;;
44228;SDS011;29904;51.058;5.378;2022-08-21T08:15:06;5.75;;;1.30;;
44228;SDS011;29904;51.058;5.378;2022-08-21T08:17:33;5.43;;;1.40;;
44228;SDS011;29904;51.058;5.378;2022-08-21T08:20:02;4.97;;;1.48;;
44228;SDS011;29904;51.058;5.378;2022-08-21T08:22:28;5.20;;;1.30;;
44228;SDS011;29904;51.058;5.378;2022-08-21T08:24:54;6.85;;;1.35;;
44228;SDS011;29904;51.058;5.378;2022-08-21T08:27:21;7.40;;;1.63;;
44228;SDS011;29904;51.058;5.378;2022-08-21T08:29:49;6.32;;;1.17;;
44228;SDS011;29904;51.058;5.378;2022-08-21T08:32:15;5.68;;;1.30;;
44228;SDS011;29904;51.058;5.378;2022-08-21T08:34:40;6.00;;;1.70;;
44228;SDS011;29904;51.058;5.378;2022-08-21T08:37:07;7.10;;;1.50;;
44228;SDS011;29904;51.058;5.378;2022-08-21T08:39:34;5.57;;;1.33;;
44228;SDS011;29904;51.058;5.378;2022-08-21T08:44:55;5.05;;;1.20;;
44228;SDS011;29904;51.058;5.378;2022-08-21T08:47:25;2.85;;;1.10;;
44228;SDS011;29904;51.058;5.378;2022-08-21T08:52:49;5.50;;;1.30;;
44228;SDS011;29904;51.058;5.378;2022-08-21T08:55:41;6.10;;;1.35;;
44228;SDS011;29904;51.058;5.378;2022-08-21T08:58:09;5.05;;;1.20;;
44228;SDS011;29904;51.058;5.378;2022-08-21T09:00:53;4.93;;;1.10;;
44228;SDS011;29904;51.058;5.378;2022-08-21T09:03:21;6.35;;;1.25;;
44228;SDS011;29904;51.058;5.378;2022-08-21T09:06:00;4.47;;;1.02;;
44228;SDS011;29904;51.058;5.378;2022-08-21T09:11:00;3.72;;;0.80;;
44228;SDS011;29904;51.058;5.378;2022-08-21T09:27:19;4.07;;;0.98;;
44228;SDS011;29904;51.058;5.378;2022-08-21T09:29:48;2.88;;;0.80;;
44228;SDS011;29904;51.058;5.378;2022-08-21T09:34:54;3.95;;;1.02;;
44228;SDS011;29904;51.058;5.378;2022-08-21T09:37:25;3.28;;;0.68;;
44228;SDS011;29904;51.058;5.378;2022-08-21T09:39:54;3.22;;;0.93;;
44228;SDS011;29904;51.058;5.378;2022-08-21T09:42:26;4.50;;;0.90;;
44228;SDS011;29904;51.058;5.378;2022-08-21T09:45:08;3.95;;;1.00;;
44228;SDS011;29904;51.058;5.378;2022-08-21T09:47:40;3.58;;;0.73;;
44228;SDS011;29904;51.058;5.378;2022-08-21T09:50:08;3.78;;;0.98;;
44228;SDS011;29904;51.058;5.378;2022-08-21T09:52:42;3.10;;;0.70;;
44228;SDS011;29904;51.058;5.378;2022-08-21T09:55:18;3.35;;;0.70;;
44228;SDS011;29904;51.058;5.378;2022-08-21T09:58:04;4.03;;;0.80;;
44228;SDS011;29904;51.058;5.378;2022-08-21T10:00:32;4.32;;;0.88;;
44228;SDS011;29904;51.058;5.378;2022-08-21T10:05:37;4.45;;;0.85;;
44228;SDS011;29904;51.058;5.378;2022-08-21T10:08:05;3.75;;;0.73;;
44228;SDS011;29904;51.058;5.378;2022-08-21T10:10:42;3.83;;;0.70;;
44228;SDS011;29904;51.058;5.378;2022-08-21T10:15:57;3.25;;;0.75;;
44228;SDS011;29904;51.058;5.378;2022-08-21T10:18:41;3.63;;;0.70;;
44228;SDS011;29904;51.058;5.378;2022-08-21T10:23:59;5.32;;;0.70;;
44228;SDS011;29904;51.058;5.378;2022-08-21T10:29:57;2.50;;;0.73;;
44228;SDS011;29904;51.058;5.378;2022-08-21T10:32:57;2.80;;;0.70;;
44228;SDS011;29904;51.058;5.378;2022-08-21T10:38:40;2.28;;;0.60;;
44228;SDS011;29904;51.058;5.378;2022-08-21T10:54:35;3.13;;;0.83;;
44228;SDS011;29904;51.058;5.378;2022-08-21T10:57:11;3.95;;;0.80;;
44228;SDS011;29904;51.058;5.378;2022-08-21T10:59:57;3.20;;;0.80;;
44228;SDS011;29904;51.058;5.378;2022-08-21T11:05:11;2.90;;;0.70;;
44228;SDS011;29904;51.058;5.378;2022-08-21T11:10:14;3.47;;;0.80;;
44228;SDS011;29904;51.058;5.378;2022-08-21T11:12:58;4.68;;;0.85;;
44228;SDS011;29904;51.058;5.378;2022-08-21T11:15:39;4.60;;;0.93;;
44228;SDS011;29904;51.058;5.378;2022-08-21T11:18:29;3.53;;;0.82;;
44228;SDS011;29904;51.058;5.378;2022-08-21T11:21:26;3.17;;;0.77;;
44228;SDS011;29904;51.058;5.378;2022-08-21T11:24:21;5.10;;;0.93;;
44228;SDS011;29904;51.058;5.378;2022-08-21T11:27:09;4.90;;;0.80;;
44228;SDS011;29904;51.058;5.378;2022-08-21T11:29:48;6.32;;;1.10;;
44228;SDS011;29904;51.058;5.378;2022-08-21T11:45:56;4.60;;;0.93;;
44228;SDS011;29904;51.058;5.378;2022-08-21T11:51:00;4.50;;;0.93;;
44228;SDS011;29904;51.058;5.378;2022-08-21T11:53:34;3.25;;;0.80;;
44228;SDS011;29904;51.058;5.378;2022-08-21T11:56:17;3.58;;;0.85;;
44228;SDS011;29904;51.058;5.378;2022-08-21T11:58:51;3.05;;;0.70;;
44228;SDS011;29904;51.058;5.378;2022-08-21T12:01:22;4.28;;;0.65;;
44228;SDS011;29904;51.058;5.378;2022-08-21T12:03:57;3.50;;;0.90;;
44228;SDS011;29904;51.058;5.378;2022-08-21T12:06:30;4.88;;;0.80;;
44228;SDS011;29904;51.058;5.378;2022-08-21T12:09:28;2.47;;;1.08;;
44228;SDS011;29904;51.058;5.378;2022-08-21T12:12:10;5.07;;;0.98;;
44228;SDS011;29904;51.058;5.378;2022-08-21T12:14:48;3.80;;;0.80;;
44228;SDS011;29904;51.058;5.378;2022-08-21T12:17:17;5.43;;;0.88;;
44228;SDS011;29904;51.058;5.378;2022-08-21T12:19:56;5.10;;;0.80;;
44228;SDS011;29904;51.058;5.378;2022-08-21T12:22:24;3.83;;;0.95;;
44228;SDS011;29904;51.058;5.378;2022-08-21T12:25:06;3.35;;;0.70;;
44228;SDS011;29904;51.058;5.378;2022-08-21T12:27:44;3.65;;;0.90;;
44228;SDS011;29904;51.058;5.378;2022-08-21T12:33:02;4.90;;;0.90;;
44228;SDS011;29904;51.058;5.378;2022-08-21T12:35:40;4.18;;;0.80;;
44228;SDS011;29904;51.058;5.378;2022-08-21T12:40:55;4.18;;;1.00;;
44228;SDS011;29904;51.058;5.378;2022-08-21T12:46:04;4.10;;;0.90;;
44228;SDS011;29904;51.058;5.378;2022-08-21T12:48:44;4.15;;;0.80;;
44228;SDS011;29904;51.058;5.378;2022-08-21T12:51:17;3.97;;;0.83;;
44228;SDS011;29904;51.058;5.378;2022-08-21T12:53:51;3.10;;;0.60;;
44228;SDS011;29904;51.058;5.378;2022-08-21T12:56:20;3.03;;;0.70;;
44228;SDS011;29904;51.058;5.378;2022-08-21T12:58:50;3.83;;;0.90;;
44228;SDS011;29904;51.058;5.378;2022-08-21T13:03:50;4.37;;;0.73;;
44228;SDS011;29904;51.058;5.378;2022-08-21T13:06:19;3.72;;;0.73;;
44228;SDS011;29904;51.058;5.378;2022-08-21T13:08:46;3.20;;;0.80;;
44228;SDS011;29904;51.058;5.378;2022-08-21T13:11:16;3.40;;;0.90;;
44228;SDS011;29904;51.058;5.378;2022-08-21T13:13:48;5.90;;;0.95;;
44228;SDS011;29904;51.058;5.378;2022-08-21T13:16:18;4.93;;;0.90;;
44228;SDS011;29904;51.058;5.378;2022-08-21T13:19:06;4.50;;;0.90;;
44228;SDS011;29904;51.058;5.378;2022-08-21T13:21:40;4.15;;;0.80;;
44228;SDS011;29904;51.058;5.378;2022-08-21T13:26:47;4.50;;;0.80;;
44228;SDS011;29904;51.058;5.378;2022-08-21T13:29:15;2.72;;;0.63;;
44228;SDS011;29904;51.058;5.378;2022-08-21T13:31:54;2.20;;;0.60;;
44228;SDS011;29904;51.058;5.378;2022-08-21T13:34:22;2.65;;;0.85;;
44228;SDS011;29904;51.058;5.378;2022-08-21T13:36:54;4.18;;;0.90;;
44228;SDS011;29904;51.058;5.378;2022-08-21T13:39:23;4.47;;;1.00;;
44228;SDS011;29904;51.058;5.378;2022-08-21T13:41:50;3.47;;;0.90;;
44228;SDS011;29904;51.058;5.378;2022-08-21T13:44:23;4.00;;;0.80;;
44228;SDS011;29904;51.058;5.378;2022-08-21T13:46:56;5.97;;;0.95;;
44228;SDS011;29904;51.058;5.378;2022-08-21T13:49:32;3.75;;;0.90;;
44228;SDS011;29904;51.058;5.378;2022-08-21T13:52:01;3.40;;;0.90;;
44228;SDS011;29904;51.058;5.378;2022-08-21T13:54:35;3.28;;;0.80;;
44228;SDS011;29904;51.058;5.378;2022-08-21T13:57:15;3.72;;;0.90;;
44228;SDS011;29904;51.058;5.378;2022-08-21T13:59:42;3.75;;;0.82;;
44228;SDS011;29904;51.058;5.378;2022-08-21T14:02:15;4.07;;;1.08;;
44228;SDS011;29904;51.058;5.378;2022-08-21T14:04:50;3.90;;;1.13;;
44228;SDS011;29904;51.058;5.378;2022-08-21T14:07:35;5.43;;;1.10;;
44228;SDS011;29904;51.058;5.378;2022-08-21T14:10:19;5.83;;;1.00;;
44228;SDS011;29904;51.058;5.378;2022-08-21T14:15:26;5.00;;;0.98;;
44228;SDS011;29904;51.058;5.378;2022-08-21T14:17:54;3.70;;;0.98;;
44228;SDS011;29904;51.058;5.378;2022-08-21T14:20:33;4.53;;;1.00;;
44228;SDS011;29904;51.058;5.378;2022-08-21T14:23:00;3.13;;;0.77;;
44228;SDS011;29904;51.058;5.378;2022-08-21T14:25:36;5.45;;;1.10;;
44228;SDS011;29904;51.058;5.378;2022-08-21T14:30:53;2.80;;;0.93;;
44228;SDS011;29904;51.058;5.378;2022-08-21T14:35:54;3.60;;;0.90;;
44228;SDS011;29904;51.058;5.378;2022-08-21T14:38:21;3.42;;;0.98;;
44228;SDS011;29904;51.058;5.378;2022-08-21T14:40:50;4.60;;;1.10;;
44228;SDS011;29904;51.058;5.378;2022-08-21T14:43:19;3.10;;;0.82;;
44228;SDS011;29904;51.058;5.378;2022-08-21T14:45:47;3.95;;;0.80;;
44228;SDS011;29904;51.058;5.378;2022-08-21T14:48:13;3.33;;;0.80;;
44228;SDS011;29904;51.058;5.378;2022-08-21T14:50:39;4.23;;;0.80;;
44228;SDS011;29904;51.058;5.378;2022-08-21T14:53:05;2.83;;;0.70;;
44228;SDS011;29904;51.058;5.378;2022-08-21T14:55:31;3.80;;;0.83;;
44228;SDS011;29904;51.058;5.378;2022-08-21T14:58:15;2.72;;;0.77;;
44228;SDS011;29904;51.058;5.378;2022-08-21T15:00:41;3.13;;;0.70;;
44228;SDS011;29904;51.058;5.378;2022-08-21T15:03:06;3.00;;;0.80;;
44228;SDS011;29904;51.058;5.378;2022-08-21T15:05:32;4.07;;;0.90;;
44228;SDS011;29904;51.058;5.378;2022-08-21T15:08:00;5.83;;;1.33;;
44228;SDS011;29904;51.058;5.378;2022-08-21T15:10:26;3.90;;;0.80;;
44228;SDS011;29904;51.058;5.378;2022-08-21T15:12:52;3.05;;;0.75;;
44228;SDS011;29904;51.058;5.378;2022-08-21T15:15:18;4.03;;;0.77;;
44228;SDS011;29904;51.058;5.378;2022-08-21T15:17:44;3.13;;;0.73;;
44228;SDS011;29904;51.058;5.378;2022-08-21T15:20:09;4.30;;;1.20;;
44228;SDS011;29904;51.058;5.378;2022-08-21T15:22:39;4.78;;;1.25;;
44228;SDS011;29904;51.058;5.378;2022-08-21T15:25:05;3.77;;;1.00;;
44228;SDS011;29904;51.058;5.378;2022-08-21T15:27:31;4.97;;;1.00;;
44228;SDS011;29904;51.058;5.378;2022-08-21T15:29:57;4.40;;;0.90;;
44228;SDS011;29904;51.058;5.378;2022-08-21T15:32:25;5.55;;;0.98;;
44228;SDS011;29904;51.058;5.378;2022-08-21T15:34:54;3.27;;;0.90;;
44228;SDS011;29904;51.058;5.378;2022-08-21T15:37:20;2.92;;;0.80;;
44228;SDS011;29904;51.058;5.378;2022-08-21T15:39:48;6.75;;;1.23;;
44228;SDS011;29904;51.058;5.378;2022-08-21T15:42:14;3.60;;;0.90;;
44228;SDS011;29904;51.058;5.378;2022-08-21T15:44:41;4.90;;;1.00;;
44228;SDS011;29904;51.058;5.378;2022-08-21T15:47:29;5.70;;;1.00;;
44228;SDS011;29904;51.058;5.378;2022-08-21T15:49:54;3.17;;;0.80;;
44228;SDS011;29904;51.058;5.378;2022-08-21T15:52:20;4.80;;;0.98;;
44228;SDS011;29904;51.058;5.378;2022-08-21T15:54:46;4.55;;;0.88;;
44228;SDS011;29904;51.058;5.378;2022-08-21T15:57:13;5.63;;;0.90;;
44228;SDS011;29904;51.058;5.378;2022-08-21T15:59:43;5.57;;;1.10;;
44228;SDS011;29904;51.058;5.378;2022-08-21T16:02:18;2.95;;;0.90;;
44228;SDS011;29904;51.058;5.378;2022-08-21T16:04:52;3.67;;;1.00;;
44228;SDS011;29904;51.058;5.378;2022-08-21T16:07:18;5.22;;;0.90;;
44228;SDS011;29904;51.058;5.378;2022-08-21T16:09:44;4.05;;;1.00;;
44228;SDS011;29904;51.058;5.378;2022-08-21T16:12:11;3.75;;;1.00;;
44228;SDS011;29904;51.058;5.378;2022-08-21T16:14:44;3.47;;;1.00;;
44228;SDS011;29904;51.058;5.378;2022-08-21T16:17:10;4.20;;;1.30;;
44228;SDS011;29904;51.058;5.378;2022-08-21T16:19:36;5.63;;;1.08;;
44228;SDS011;29904;51.058;5.378;2022-08-21T16:22:04;6.38;;;0.90;;
44228;SDS011;29904;51.058;5.378;2022-08-21T16:24:30;3.63;;;0.90;;
44228;SDS011;29904;51.058;5.378;2022-08-21T16:26:56;6.80;;;1.00;;
44228;SDS011;29904;51.058;5.378;2022-08-21T16:29:25;4.28;;;0.90;;
44228;SDS011;29904;51.058;5.378;2022-08-21T16:31:54;4.03;;;1.10;;
44228;SDS011;29904;51.058;5.378;2022-08-21T16:34:20;3.42;;;0.80;;
44228;SDS011;29904;51.058;5.378;2022-08-21T16:36:46;3.53;;;1.05;;
44228;SDS011;29904;51.058;5.378;2022-08-21T16:39:12;3.22;;;0.93;;